createdAt,value
2023-04-07T00:00:06.297Z,97205.31
2023-04-07T00:02:08.988Z,97195.47
2023-04-07T00:04:11.717Z,97196.69
2023-04-07T00:06:14.352Z,97193.41
2023-04-07T00:08:16.909Z,97188.19
2023-04-07T00:10:20.825Z,97192.84
2023-04-07T00:12:23.380Z,97197.59
2023-04-07T00:14:25.920Z,97190.88
2023-04-07T00:16:28.593Z,97184.06
2023-04-07T00:18:31.119Z,97193.28
2023-04-07T00:20:33.683Z,97181.50
2023-04-07T00:22:36.251Z,97184.41
2023-04-07T00:24:38.828Z,97179.31
2023-04-07T00:26:42.728Z,97176.94
2023-04-07T00:28:45.293Z,97174.44
2023-04-07T00:30:47.939Z,97169.38
2023-04-07T00:32:51.366Z,97174.13
2023-04-07T00:34:54.001Z,97163.91
2023-04-07T00:36:56.874Z,97157.38
2023-04-07T00:38:59.396Z,97159.19
2023-04-07T00:41:02.066Z,97161.84
2023-04-07T00:43:05.976Z,97149.69
2023-04-07T00:45:10.143Z,97146.44
2023-04-07T00:47:13.371Z,97147.13
2023-04-07T00:49:17.777Z,97150.44
2023-04-07T00:51:22.290Z,97154.06
2023-04-07T00:53:25.232Z,97151.69
2023-04-07T00:55:27.907Z,97148.00
2023-04-07T00:57:30.441Z,97149.75
2023-04-07T00:59:34.700Z,97139.81
2023-04-07T01:01:45.418Z,97135.72
2023-04-07T01:03:54.825Z,97132.97
2023-04-07T01:06:01.984Z,97125.59
2023-04-07T01:08:13.974Z,97127.00
2023-04-07T01:10:24.596Z,97119.59
2023-04-07T01:12:36.157Z,97113.03
2023-04-07T01:14:48.024Z,97107.19
2023-04-07T01:16:53.079Z,97101.06
2023-04-07T01:19:01.299Z,97104.22
2023-04-07T01:21:07.542Z,97100.88
2023-04-07T01:23:15.049Z,97102.53
2023-04-07T01:25:30.411Z,97097.31
2023-04-07T01:27:39.239Z,97090.03
2023-04-07T01:29:47.787Z,97097.00
2023-04-07T01:31:51.446Z,97093.53
2023-04-07T01:33:56.325Z,97092.50
2023-04-07T01:36:01.049Z,97098.06
2023-04-07T01:38:04.930Z,97092.09
2023-04-07T01:40:09.638Z,97095.81
2023-04-07T01:42:13.439Z,97097.22
2023-04-07T01:44:16.568Z,97093.38
2023-04-07T01:46:21.284Z,97093.91
2023-04-07T01:48:24.367Z,97095.31
2023-04-07T01:50:27.936Z,97090.50
2023-04-07T01:52:31.184Z,97085.69
2023-04-07T01:54:34.749Z,97084.78
2023-04-07T01:56:37.771Z,97086.91
2023-04-07T01:58:40.663Z,97085.63
2023-04-07T02:00:43.458Z,97083.84
2023-04-07T02:02:50.466Z,97083.91
2023-04-07T02:04:56.721Z,97085.91
2023-04-07T02:07:04.057Z,97082.56
2023-04-07T02:09:11.680Z,97087.16
2023-04-07T02:11:15.369Z,97081.53
2023-04-07T02:13:21.233Z,97081.78
2023-04-07T02:15:25.048Z,97077.25
2023-04-07T02:17:29.441Z,97074.78
2023-04-07T02:19:34.688Z,97079.25
2023-04-07T02:21:37.885Z,97079.13
2023-04-07T02:23:40.579Z,97073.34
2023-04-07T02:25:43.225Z,97069.94
2023-04-07T02:27:45.875Z,97065.66
2023-04-07T02:29:48.449Z,97067.50
2023-04-07T02:31:51.047Z,97070.16
2023-04-07T02:33:53.766Z,97063.84
2023-04-07T02:35:57.741Z,97067.88
2023-04-07T02:38:00.361Z,97058.78
2023-04-07T02:40:03.114Z,97065.84
2023-04-07T02:42:05.840Z,97060.47
2023-04-07T02:44:08.397Z,97059.84
2023-04-07T02:46:11.030Z,97058.25
2023-04-07T02:48:13.660Z,97057.34
2023-04-07T02:50:16.396Z,97065.09
2023-04-07T02:52:20.284Z,97061.63
2023-04-07T02:54:22.870Z,97062.38
2023-04-07T02:56:25.770Z,97058.09
2023-04-07T02:58:28.382Z,97050.19
2023-04-07T03:00:31.189Z,97052.75
2023-04-07T03:02:34.019Z,97045.81
2023-04-07T03:04:36.626Z,97048.34
2023-04-07T03:06:39.186Z,97045.69
2023-04-07T03:08:43.528Z,97040.44
2023-04-07T03:10:46.192Z,97038.66
2023-04-07T03:12:48.710Z,97039.50
2023-04-07T03:14:51.251Z,97042.81
2023-04-07T03:16:53.840Z,97042.59
2023-04-07T03:18:56.383Z,97042.91
2023-04-07T03:20:59.614Z,97038.53
2023-04-07T03:23:02.880Z,97035.25
2023-04-07T03:25:07.820Z,97028.41
2023-04-07T03:27:10.412Z,97036.22
2023-04-07T03:29:13.050Z,97025.72
2023-04-07T03:31:15.908Z,97025.78
2023-04-07T03:33:18.488Z,97029.22
2023-04-07T03:35:21.034Z,97019.63
2023-04-07T03:37:23.702Z,97023.75
2023-04-07T03:39:26.343Z,97018.63
2023-04-07T03:41:30.360Z,97021.25
2023-04-07T03:43:32.944Z,97023.88
2023-04-07T03:45:35.574Z,97020.22
2023-04-07T03:47:38.126Z,97017.81
2023-04-07T03:49:40.919Z,97007.53
2023-04-07T03:51:43.557Z,97012.72
2023-04-07T03:53:46.317Z,97018.13
2023-04-07T03:55:49.028Z,97015.53
2023-04-07T03:57:52.943Z,97012.13
2023-04-07T03:59:56.161Z,97009.53
2023-04-07T04:01:58.806Z,97004.34
2023-04-07T04:04:01.972Z,97015.63
2023-04-07T04:06:05.075Z,97007.00
2023-04-07T04:08:08.246Z,97007.81
2023-04-07T04:10:11.423Z,97006.94
2023-04-07T04:12:14.049Z,97006.13
2023-04-07T04:14:17.999Z,97002.63
2023-04-07T04:16:20.621Z,97001.63
2023-04-07T04:18:23.246Z,97002.50
2023-04-07T04:20:25.823Z,97002.53
2023-04-07T04:22:28.373Z,97000.00
2023-04-07T04:24:30.909Z,96990.50
2023-04-07T04:26:33.493Z,96991.34
2023-04-07T04:28:36.339Z,96988.69
2023-04-07T04:30:40.270Z,96991.34
2023-04-07T04:32:42.829Z,96991.34
2023-04-07T04:34:45.812Z,96985.41
2023-04-07T04:36:49.174Z,96988.88
2023-04-07T04:38:51.808Z,96985.41
2023-04-07T04:40:54.398Z,96981.94
2023-04-07T04:42:56.928Z,96984.59
2023-04-07T04:44:59.460Z,96975.94
2023-04-07T04:47:03.414Z,96984.78
2023-04-07T04:49:06.464Z,96990.94
2023-04-07T04:51:09.139Z,96991.00
2023-04-07T04:53:11.690Z,96993.66
2023-04-07T04:55:14.664Z,96986.75
2023-04-07T04:57:17.406Z,96991.94
2023-04-07T04:59:20.010Z,96985.06
2023-04-07T05:01:22.798Z,96988.47
2023-04-07T05:03:28.192Z,96990.03
2023-04-07T05:05:30.908Z,96983.09
2023-04-07T05:07:35.133Z,96994.31
2023-04-07T05:09:37.718Z,96989.09
2023-04-07T05:11:43.250Z,96989.06
2023-04-07T05:13:48.714Z,96996.91
2023-04-07T05:15:51.346Z,96996.03
2023-04-07T05:17:53.954Z,97004.69
2023-04-07T05:19:57.865Z,97003.84
2023-04-07T05:22:00.616Z,97002.03
2023-04-07T05:24:03.249Z,97005.50
2023-04-07T05:26:05.943Z,97013.28
2023-04-07T05:28:08.501Z,97012.44
2023-04-07T05:30:11.806Z,97009.84
2023-04-07T05:32:14.376Z,96998.59
2023-04-07T05:34:16.927Z,97002.09
2023-04-07T05:36:20.840Z,96994.34
2023-04-07T05:38:23.452Z,96994.34
2023-04-07T05:40:26.092Z,96996.94
2023-04-07T05:42:28.632Z,97000.34
2023-04-07T05:44:31.193Z,97000.03
2023-04-07T05:46:33.767Z,96999.38
2023-04-07T05:48:36.510Z,96997.88
2023-04-07T05:50:39.052Z,96999.59
2023-04-07T05:52:42.922Z,97008.34
2023-04-07T05:54:45.715Z,97009.34
2023-04-07T05:56:48.353Z,97006.78
2023-04-07T05:58:51.242Z,97005.94
2023-04-07T06:00:54.746Z,97015.47
2023-04-07T06:02:57.430Z,97010.19
2023-04-07T06:05:00.376Z,97017.09
2023-04-07T06:07:03.067Z,97008.50
2023-04-07T06:09:08.190Z,97014.91
2023-04-07T06:11:11.071Z,97008.16
2023-04-07T06:13:13.652Z,97014.50
2023-04-07T06:15:16.409Z,97014.53
2023-04-07T06:17:19.056Z,97013.56
2023-04-07T06:19:21.615Z,97011.78
2023-04-07T06:21:24.839Z,97018.72
2023-04-07T06:23:27.641Z,97015.13
2023-04-07T06:25:31.541Z,97010.81
2023-04-07T06:27:34.170Z,97005.63
2023-04-07T06:29:36.746Z,97008.97
2023-04-07T06:31:39.308Z,97008.94
2023-04-07T06:33:41.945Z,97007.06
2023-04-07T06:35:44.581Z,97012.25
2023-04-07T06:37:47.144Z,97007.81
2023-04-07T06:39:49.992Z,97007.75
2023-04-07T06:41:53.909Z,97007.63
2023-04-07T06:43:56.470Z,97004.13
2023-04-07T06:45:59.106Z,96998.84
2023-04-07T06:48:01.985Z,97004.81
2023-04-07T06:50:04.799Z,96992.56
2023-04-07T06:52:07.357Z,96999.97
2023-04-07T06:54:12.849Z,96998.47
2023-04-07T06:56:15.670Z,96995.88
2023-04-07T06:58:19.555Z,96997.56
2023-04-07T07:00:22.954Z,97002.63
2023-04-07T07:02:26.016Z,97006.16
2023-04-07T07:04:28.912Z,97007.75
2023-04-07T07:06:31.734Z,97005.84
2023-04-07T07:08:34.675Z,97009.28
2023-04-07T07:10:37.252Z,97016.00
2023-04-07T07:12:39.784Z,97011.81
2023-04-07T07:14:43.697Z,97008.38
2023-04-07T07:16:46.278Z,97013.78
2023-04-07T07:18:48.836Z,97017.13
2023-04-07T07:20:51.636Z,97018.84
2023-04-07T07:22:54.177Z,97013.53
2023-04-07T07:24:56.754Z,97013.41
2023-04-07T07:26:59.289Z,97009.75
2023-04-07T07:29:02.355Z,97012.19
2023-04-07T07:31:12.872Z,97009.47
2023-04-07T07:33:15.456Z,97007.63
2023-04-07T07:35:18.368Z,97005.38
2023-04-07T07:37:21.013Z,97010.44
2023-04-07T07:39:23.751Z,97004.69
2023-04-07T07:41:27.168Z,97014.25
2023-04-07T07:43:30.016Z,97011.63
2023-04-07T07:45:32.604Z,97013.34
2023-04-07T07:47:37.557Z,97013.28
2023-04-07T07:49:40.241Z,97013.03
2023-04-07T07:51:42.847Z,97021.72
2023-04-07T07:53:45.889Z,97021.16
2023-04-07T07:55:49.573Z,97012.53
2023-04-07T07:57:52.134Z,97012.78
2023-04-07T07:59:54.680Z,97013.66
2023-04-07T08:01:57.303Z,97020.47
2023-04-07T08:04:01.276Z,97014.69
2023-04-07T08:06:04.129Z,97011.34
2023-04-07T08:08:06.793Z,97012.00
2023-04-07T08:10:10.378Z,97010.09
2023-04-07T08:12:12.943Z,97011.75
2023-04-07T08:14:15.799Z,97006.69
2023-04-07T08:16:19.335Z,97016.34
2023-04-07T08:18:21.987Z,97012.00
2023-04-07T08:20:26.580Z,97008.63
2023-04-07T08:22:29.167Z,97015.50
2023-04-07T08:24:32.652Z,97019.81
2023-04-07T08:26:35.277Z,97017.72
2023-04-07T08:28:37.910Z,97021.72
2023-04-07T08:30:40.511Z,97014.81
2023-04-07T08:32:45.370Z,97016.19
2023-04-07T08:34:50.394Z,97027.97
2023-04-07T08:36:54.274Z,97022.00
2023-04-07T08:38:56.879Z,97026.09
2023-04-07T08:41:04.416Z,97025.50
2023-04-07T08:43:10.444Z,97022.66
2023-04-07T08:45:14.389Z,97028.09
2023-04-07T08:47:19.131Z,97032.53
2023-04-07T08:49:23.618Z,97033.50
2023-04-07T08:51:29.627Z,97040.19
2023-04-07T08:53:38.846Z,97032.31
2023-04-07T08:55:42.292Z,97032.47
2023-04-07T08:57:45.331Z,97036.88
2023-04-07T08:59:51.377Z,97032.47
2023-04-07T09:01:53.970Z,97031.72
2023-04-07T09:03:58.349Z,97023.50
2023-04-07T09:06:02.084Z,97026.38
2023-04-07T09:08:04.782Z,97025.81
2023-04-07T09:10:09.851Z,97025.88
2023-04-07T09:12:12.823Z,97024.72
2023-04-07T09:14:16.165Z,97029.06
2023-04-07T09:16:19.638Z,97026.66
2023-04-07T09:18:22.255Z,97022.34
2023-04-07T09:20:25.321Z,97017.03
2023-04-07T09:22:38.748Z,97023.94
2023-04-07T09:24:42.654Z,97027.25
2023-04-07T09:26:46.633Z,97030.38
2023-04-07T09:28:51.585Z,97030.28
2023-04-07T09:30:55.454Z,97021.13
2023-04-07T09:32:59.772Z,97025.78
2023-04-07T09:35:02.443Z,97018.25
2023-04-07T09:37:07.117Z,97022.59
2023-04-07T09:39:10.686Z,97025.28
2023-04-07T09:41:15.263Z,97023.38
2023-04-07T09:43:20.387Z,97024.22
2023-04-07T09:45:34.118Z,97016.28
2023-04-07T09:47:38.224Z,97023.53
2023-04-07T09:49:51.178Z,97025.41
2023-04-07T09:51:55.951Z,97023.53
2023-04-07T09:53:58.531Z,97024.19
2023-04-07T09:56:01.064Z,97017.38
2023-04-07T09:58:05.142Z,97017.72
2023-04-07T10:00:11.281Z,97023.09
2023-04-07T10:02:13.901Z,97016.41
2023-04-07T10:04:17.683Z,97020.41
2023-04-07T10:06:20.800Z,97014.59
2023-04-07T10:08:23.795Z,97008.97
2023-04-07T10:10:28.698Z,97013.53
2023-04-07T10:12:33.539Z,97010.06
2023-04-07T10:14:38.088Z,97018.75
2023-04-07T10:16:44.852Z,97010.03
2023-04-07T10:18:47.542Z,97013.22
2023-04-07T10:20:51.096Z,97010.06
2023-04-07T10:22:56.913Z,97012.94
2023-04-07T10:25:05.547Z,97005.75
2023-04-07T10:27:12.932Z,97011.50
2023-04-07T10:29:16.840Z,97003.75
2023-04-07T10:31:20.008Z,97006.63
2023-04-07T10:33:49.395Z,97009.47
2023-04-07T10:36:05.860Z,97004.72
2023-04-07T10:38:13.828Z,97003.50
2023-04-07T10:40:29.924Z,97000.78
2023-04-07T10:42:48.590Z,96998.25
2023-04-07T10:44:51.448Z,96992.72
2023-04-07T10:47:07.366Z,96995.41
2023-04-07T10:49:13.185Z,96998.09
2023-04-07T10:51:17.766Z,96996.41
2023-04-07T10:53:20.424Z,96998.25
2023-04-07T10:55:34.315Z,96993.81
2023-04-07T10:57:37.646Z,96995.56
2023-04-07T10:59:43.363Z,96997.81
2023-04-07T11:01:46.318Z,96987.13
2023-04-07T11:03:57.856Z,96996.19
2023-04-07T11:06:05.936Z,96993.13
2023-04-07T11:08:08.793Z,96995.09
2023-04-07T11:10:12.391Z,96987.34
2023-04-07T11:12:23.674Z,96997.41
2023-04-07T11:14:28.140Z,96998.41
2023-04-07T11:16:37.826Z,97000.34
2023-04-07T11:18:41.419Z,96998.50
2023-04-07T11:20:46.297Z,96993.38
2023-04-07T11:23:01.772Z,96998.88
2023-04-07T11:25:04.841Z,96986.94
2023-04-07T11:27:13.347Z,96991.44
2023-04-07T11:29:15.900Z,96994.94
2023-04-07T11:31:22.970Z,97000.19
2023-04-07T11:33:27.361Z,96994.13
2023-04-07T11:35:29.982Z,97004.19
2023-04-07T11:37:32.665Z,97000.03
2023-04-07T11:39:36.841Z,96997.41
2023-04-07T11:41:47.738Z,96998.50
2023-04-07T11:43:51.018Z,97003.88
2023-04-07T11:46:08.262Z,97005.78
2023-04-07T11:48:30.220Z,97017.50
2023-04-07T11:50:40.310Z,97019.69
2023-04-07T11:52:44.021Z,97026.84
2023-04-07T11:54:50.515Z,97032.56
2023-04-07T11:56:55.586Z,97030.31
2023-04-07T11:58:59.104Z,97030.59
2023-04-07T12:01:09.020Z,97030.59
2023-04-07T12:03:14.587Z,97032.56
2023-04-07T12:05:17.633Z,97029.19
2023-04-07T12:07:20.871Z,97028.53
2023-04-07T12:09:28.752Z,97037.38
2023-04-07T12:11:33.761Z,97038.22
2023-04-07T12:13:36.743Z,97036.59
2023-04-07T12:15:39.290Z,97035.41
2023-04-07T12:17:47.822Z,97037.88
2023-04-07T12:19:51.505Z,97040.63
2023-04-07T12:21:54.056Z,97046.56
2023-04-07T12:23:56.622Z,97047.59
2023-04-07T12:25:59.202Z,97051.91
2023-04-07T12:28:03.083Z,97050.06
2023-04-07T12:30:06.640Z,97055.84
2023-04-07T12:32:09.242Z,97053.53
2023-04-07T12:34:12.038Z,97053.53
2023-04-07T12:36:14.649Z,97059.03
2023-04-07T12:38:17.182Z,97061.50
2023-04-07T12:40:19.786Z,97065.59
2023-04-07T12:42:22.346Z,97064.03
2023-04-07T12:44:27.919Z,97063.22
2023-04-07T12:46:30.550Z,97064.97
2023-04-07T12:48:33.143Z,97062.06
2023-04-07T12:50:36.364Z,97059.28
2023-04-07T12:52:41.015Z,97048.59
2023-04-07T12:54:44.370Z,97047.47
2023-04-07T12:56:47.751Z,97049.84
2023-04-07T12:58:50.345Z,97050.88
2023-04-07T13:00:54.577Z,97052.50
2023-04-07T13:02:57.692Z,97053.88
2023-04-07T13:05:00.336Z,97046.09
2023-04-07T13:07:03.088Z,97043.31
2023-04-07T13:09:05.698Z,97051.44
2023-04-07T13:11:08.487Z,97051.66
2023-04-07T13:13:11.184Z,97047.34
2023-04-07T13:15:13.870Z,97051.28
2023-04-07T13:17:18.646Z,97041.81
2023-04-07T13:19:21.195Z,97043.25
2023-04-07T13:23:29.200Z,97043.13
2023-04-07T13:25:31.979Z,97043.97
2023-04-07T13:27:34.520Z,97046.41
2023-04-07T13:29:37.213Z,97046.63
2023-04-07T13:31:39.836Z,97047.91
2023-04-07T13:33:43.970Z,97049.25
2023-04-07T13:35:46.547Z,97046.53
2023-04-07T13:37:49.103Z,97046.38
2023-04-07T13:39:51.672Z,97046.22
2023-04-07T13:41:54.240Z,97053.06
2023-04-07T13:43:58.314Z,97041.75
2023-04-07T13:46:00.897Z,97046.91
2023-04-07T13:48:03.885Z,97043.19
2023-04-07T13:50:08.708Z,97037.03
2023-04-07T13:52:11.519Z,97043.28
2023-04-07T13:54:14.051Z,97049.59
2023-04-07T13:56:16.634Z,97047.91
2023-04-07T13:58:19.231Z,97049.44
2023-04-07T14:00:21.917Z,97045.72
2023-04-07T14:02:26.050Z,97043.00
2023-04-07T14:04:28.766Z,97046.00
2023-04-07T14:06:32.758Z,97042.06
2023-04-07T14:08:35.335Z,97036.38
2023-04-07T14:10:37.925Z,97043.00
2023-04-07T14:12:41.091Z,97040.25
2023-04-07T14:14:43.670Z,97040.53
2023-04-07T14:16:46.269Z,97044.16
2023-04-07T14:18:49.402Z,97047.94
2023-04-07T14:20:52.011Z,97043.94
2023-04-07T14:22:58.847Z,97054.06
2023-04-07T14:25:01.569Z,97053.78
2023-04-07T14:27:05.348Z,97048.88
2023-04-07T14:29:07.929Z,97050.09
2023-04-07T14:31:13.530Z,97049.28
2023-04-07T14:33:17.290Z,97053.19
2023-04-07T14:35:19.903Z,97050.69
2023-04-07T14:37:24.552Z,97048.66
2023-04-07T14:39:29.050Z,97052.84
2023-04-07T14:41:31.650Z,97052.66
2023-04-07T14:43:34.273Z,97048.75
2023-04-07T14:45:36.913Z,97048.84
2023-04-07T14:47:39.521Z,97046.91
2023-04-07T14:49:42.100Z,97048.69
2023-04-07T14:51:45.246Z,97043.28
2023-04-07T14:53:53.319Z,97041.56
2023-04-07T14:55:57.209Z,97056.03
2023-04-07T14:57:59.745Z,97052.72
2023-04-07T15:00:02.429Z,97046.78
2023-04-07T15:02:05.133Z,97051.34
2023-04-07T15:04:07.841Z,97050.63
2023-04-07T15:06:11.345Z,97053.16
2023-04-07T15:08:13.924Z,97054.44
2023-04-07T15:10:18.472Z,97050.47
2023-04-07T15:12:22.371Z,97057.97
2023-04-07T15:14:24.920Z,97058.75
2023-04-07T15:16:27.788Z,97062.03
2023-04-07T15:18:30.537Z,97067.13
2023-04-07T15:20:33.949Z,97055.81
2023-04-07T15:22:36.862Z,97063.03
2023-04-07T15:24:39.460Z,97065.22
2023-04-07T15:26:42.000Z,97066.69
2023-04-07T15:28:45.930Z,97059.31
2023-04-07T15:30:48.530Z,97060.53
2023-04-07T15:32:58.782Z,97062.66
2023-04-07T15:35:01.508Z,97066.41
2023-04-07T15:37:04.541Z,97067.56
2023-04-07T15:39:07.691Z,97068.84
2023-04-07T15:41:10.244Z,97074.13
2023-04-07T15:43:13.348Z,97070.00
2023-04-07T15:45:17.270Z,97076.28
2023-04-07T15:47:19.817Z,97077.22
2023-04-07T15:49:24.859Z,97084.22
2023-04-07T15:51:30.350Z,97085.22
2023-04-07T15:53:33.021Z,97080.06
2023-04-07T15:55:39.428Z,97085.28
2023-04-07T15:57:41.994Z,97083.69
2023-04-07T15:59:44.630Z,97079.38
2023-04-07T16:01:48.862Z,97081.97
2023-04-07T16:03:51.591Z,97084.69
2023-04-07T16:05:55.334Z,97097.75
2023-04-07T16:07:57.947Z,97094.31
2023-04-07T16:10:00.570Z,97092.75
2023-04-07T16:12:03.204Z,97104.78
2023-04-07T16:14:08.372Z,97096.38
2023-04-07T16:16:11.722Z,97110.53
2023-04-07T16:18:15.860Z,97100.19
2023-04-07T16:20:18.462Z,97109.84
2023-04-07T16:22:21.115Z,97111.84
2023-04-07T16:24:23.855Z,97105.06
2023-04-07T16:26:26.404Z,97107.75
2023-04-07T16:28:29.000Z,97101.81
2023-04-07T16:30:31.586Z,97112.34
2023-04-07T16:32:34.275Z,97111.66
2023-04-07T16:34:38.240Z,97116.03
2023-04-07T16:36:41.260Z,97115.16
2023-04-07T16:38:43.812Z,97131.78
2023-04-07T16:41:00.709Z,97123.25
2023-04-07T16:43:05.794Z,97130.38
2023-04-07T16:45:09.226Z,97128.78
2023-04-07T16:47:12.310Z,97131.50
2023-04-07T16:49:14.875Z,97135.13
2023-04-07T16:51:19.191Z,97139.34
2023-04-07T16:53:21.931Z,97136.97
2023-04-07T16:55:24.606Z,97139.44
2023-04-07T16:57:27.192Z,97141.41
2023-04-07T16:59:31.212Z,97139.72
2023-04-07T17:01:33.870Z,97148.56
2023-04-07T17:03:37.587Z,97149.59
2023-04-07T17:05:40.392Z,97155.97
2023-04-07T17:07:44.255Z,97156.13
2023-04-07T17:09:46.866Z,97152.88
2023-04-07T17:11:49.491Z,97155.09
2023-04-07T17:13:55.848Z,97159.53
2023-04-07T17:16:00.497Z,97162.81
2023-04-07T17:18:03.083Z,97161.75
2023-04-07T17:20:06.380Z,97170.13
2023-04-07T17:22:09.304Z,97171.09
2023-04-07T17:24:15.318Z,97175.38
2023-04-07T17:26:17.870Z,97186.22
2023-04-07T17:28:20.397Z,97180.03
2023-04-07T17:30:23.104Z,97181.63
2023-04-07T17:32:26.151Z,97185.66
2023-04-07T17:34:28.836Z,97192.72
2023-04-07T17:36:32.476Z,97191.91
2023-04-07T17:38:35.028Z,97198.16
2023-04-07T17:40:38.972Z,97194.56
2023-04-07T17:42:41.701Z,97199.22
2023-04-07T17:44:44.617Z,97201.00
2023-04-07T17:46:47.316Z,97208.91
2023-04-07T17:48:51.835Z,97207.16
2023-04-07T17:50:54.408Z,97203.13
2023-04-07T17:52:58.664Z,97203.66
2023-04-07T17:55:02.382Z,97212.13
2023-04-07T17:57:06.322Z,97211.06
2023-04-07T17:59:08.856Z,97216.63
2023-04-07T18:01:11.615Z,97212.31
2023-04-07T18:03:15.297Z,97213.75
2023-04-07T18:05:18.009Z,97213.94
2023-04-07T18:07:20.923Z,97220.97
2023-04-07T18:09:23.497Z,97224.84
2023-04-07T18:11:26.278Z,97227.94
2023-04-07T18:13:30.220Z,97234.25
2023-04-07T18:15:32.909Z,97245.06
2023-04-07T18:17:35.581Z,97246.22
2023-04-07T18:19:38.219Z,97245.13
2023-04-07T18:21:41.585Z,97248.25
2023-04-07T18:23:44.198Z,97249.50
2023-04-07T18:25:47.063Z,97252.28
2023-04-07T18:27:49.631Z,97262.72
2023-04-07T18:29:53.513Z,97263.63
2023-04-07T18:31:56.049Z,97275.53
2023-04-07T18:33:59.061Z,97270.59
2023-04-07T18:36:03.873Z,97278.97
2023-04-07T18:38:06.550Z,97274.69
2023-04-07T18:40:10.012Z,97278.31
2023-04-07T18:42:12.680Z,97292.28
2023-04-07T18:44:15.588Z,97296.97
2023-04-07T18:46:19.582Z,97292.75
2023-04-07T18:48:22.453Z,97293.47
2023-04-07T18:50:24.996Z,97301.03
2023-04-07T18:52:27.830Z,97300.28
2023-04-07T18:54:30.467Z,97297.94
2023-04-07T18:56:33.456Z,97294.75
2023-04-07T18:58:44.247Z,97303.38
2023-04-07T19:00:46.963Z,97299.63
2023-04-07T19:02:51.046Z,97312.34
2023-04-07T19:04:53.761Z,97311.00
2023-04-07T19:06:57.498Z,97310.72
2023-04-07T19:09:00.413Z,97322.06
2023-04-07T19:11:03.624Z,97318.94
2023-04-07T19:13:06.210Z,97324.44
2023-04-07T19:15:09.559Z,97334.94
2023-04-07T19:17:12.616Z,97331.97
2023-04-07T19:19:18.220Z,97337.59
2023-04-07T19:21:21.104Z,97340.44
2023-04-07T19:23:23.666Z,97340.50
2023-04-07T19:25:27.154Z,97341.28
2023-04-07T19:27:29.722Z,97348.25
2023-04-07T19:29:32.292Z,97353.19
2023-04-07T19:31:35.359Z,97352.56
2023-04-07T19:33:38.152Z,97355.16
2023-04-07T19:35:42.113Z,97360.19
2023-04-07T19:37:46.761Z,97361.50
2023-04-07T19:40:01.797Z,97361.88
2023-04-07T19:42:05.386Z,97361.06
2023-04-07T19:44:08.050Z,97360.31
2023-04-07T19:46:10.664Z,97364.53
2023-04-07T19:48:13.259Z,97370.81
2023-04-07T19:50:15.820Z,97361.63
2023-04-07T19:52:19.724Z,97366.13
2023-04-07T19:54:22.933Z,97374.28
2023-04-07T19:56:25.927Z,97367.41
2023-04-07T19:58:28.899Z,97375.44
2023-04-07T20:00:33.110Z,97378.91
2023-04-07T20:02:36.280Z,97376.41
2023-04-07T20:04:38.983Z,97378.31
2023-04-07T20:06:41.527Z,97370.59
2023-04-07T20:08:46.223Z,97373.41
2023-04-07T20:10:51.288Z,97373.72
2023-04-07T20:12:53.919Z,97375.06
2023-04-07T20:14:56.456Z,97376.56
2023-04-07T20:16:59.064Z,97372.34
2023-04-07T20:19:01.633Z,97388.34
2023-04-07T20:21:05.787Z,97380.75
2023-04-07T20:23:08.383Z,97371.72
2023-04-07T20:25:12.399Z,97376.53
2023-04-07T20:27:14.938Z,97375.09
2023-04-07T20:29:17.480Z,97377.78
2023-04-07T20:31:21.186Z,97376.88
2023-04-07T20:33:23.820Z,97374.34
2023-04-07T20:35:26.578Z,97378.03
2023-04-07T20:37:29.168Z,97379.81
2023-04-07T20:39:31.804Z,97384.38
2023-04-07T20:41:36.340Z,97389.59
2023-04-07T20:43:38.880Z,97389.50
2023-04-07T20:45:41.702Z,97382.69
2023-04-07T20:47:44.613Z,97390.34
2023-04-07T20:49:47.196Z,97384.50
2023-04-07T20:51:49.762Z,97382.81
2023-04-07T20:53:52.346Z,97396.75
2023-04-07T20:55:54.923Z,97388.66
2023-04-07T20:57:58.814Z,97391.25
2023-04-07T21:00:01.396Z,97390.47
2023-04-07T21:02:04.210Z,97389.47
2023-04-07T21:04:06.977Z,97395.56
2023-04-07T21:06:09.664Z,97391.22
2023-04-07T21:08:14.359Z,97392.72
2023-04-07T21:10:17.943Z,97391.91
2023-04-07T21:12:20.510Z,97398.06
2023-04-07T21:14:24.671Z,97394.69
2023-04-07T21:16:27.223Z,97393.00
2023-04-07T21:18:29.804Z,97395.28
2023-04-07T21:20:32.414Z,97398.97
2023-04-07T21:22:34.960Z,97392.03
2023-04-07T21:24:37.504Z,97399.84
2023-04-07T21:26:40.048Z,97397.13
2023-04-07T21:28:42.636Z,97394.56
2023-04-07T21:30:46.602Z,97392.97
2023-04-07T21:32:49.263Z,97395.63
2023-04-07T21:34:53.102Z,97395.78
2023-04-07T21:36:55.672Z,97391.44
2023-04-07T21:38:58.299Z,97387.09
2023-04-07T21:41:03.264Z,97396.31
2023-04-07T21:43:05.873Z,97395.72
2023-04-07T21:45:10.132Z,97398.66
2023-04-07T21:47:14.794Z,97387.34
2023-04-07T21:49:22.330Z,97395.28
2023-04-07T21:51:24.882Z,97400.50
2023-04-07T21:53:27.562Z,97393.59
2023-04-07T21:55:30.110Z,97401.41
2023-04-07T21:57:32.694Z,97396.22
2023-04-07T21:59:35.936Z,97404.19
2023-04-07T22:01:38.597Z,97399.03
2023-04-07T22:03:44.292Z,97398.66
2023-04-07T22:05:46.991Z,97398.88
2023-04-07T22:07:49.984Z,97401.59
2023-04-07T22:09:52.648Z,97402.44
2023-04-07T22:11:55.776Z,97396.00
2023-04-07T22:13:58.374Z,97397.09
2023-04-07T22:16:02.175Z,97393.44
2023-04-07T22:18:04.987Z,97387.25
2023-04-07T22:20:11.145Z,97390.94
2023-04-07T22:22:13.696Z,97392.88
2023-04-07T22:24:16.610Z,97388.09
2023-04-07T22:26:19.298Z,97391.88
2023-04-07T22:28:21.873Z,97384.94
2023-04-07T22:30:24.629Z,97391.44
2023-04-07T22:32:27.343Z,97392.63
2023-04-07T22:34:29.932Z,97384.13
2023-04-07T22:36:34.339Z,97400.69
2023-04-07T22:38:36.896Z,97396.38
2023-04-07T22:40:39.434Z,97395.94
2023-04-07T22:42:42.027Z,97403.16
2023-04-07T22:44:44.557Z,97403.91
2023-04-07T22:46:47.171Z,97403.25
2023-04-07T22:48:49.994Z,97407.59
2023-04-07T22:50:52.662Z,97417.06
2023-04-07T22:52:56.556Z,97409.28
2023-04-07T22:54:59.115Z,97408.25
2023-04-07T22:57:03.072Z,97415.31
2023-04-07T22:59:06.063Z,97405.44
2023-04-07T23:01:08.689Z,97412.59
2023-04-07T23:03:11.608Z,97411.06
2023-04-07T23:05:14.268Z,97407.56
2023-04-07T23:07:17.099Z,97416.22
2023-04-07T23:09:23.635Z,97415.31
2023-04-07T23:11:26.288Z,97415.34
2023-04-07T23:13:28.837Z,97420.50
2023-04-07T23:15:31.411Z,97418.66
2023-04-07T23:17:34.018Z,97417.81
2023-04-07T23:19:36.611Z,97420.34
2023-04-07T23:21:39.616Z,97417.03
2023-04-07T23:23:42.512Z,97417.88
2023-04-07T23:25:46.735Z,97410.97
2023-04-07T23:27:49.272Z,97417.06
2023-04-07T23:29:51.998Z,97419.44
2023-04-07T23:31:54.633Z,97417.91
2023-04-07T23:33:58.668Z,97419.72
2023-04-07T23:36:01.302Z,97423.81
2023-04-07T23:38:03.857Z,97418.81
2023-04-07T23:40:07.721Z,97418.06
2023-04-07T23:42:11.792Z,97419.47
2023-04-07T23:44:14.354Z,97413.47
2023-04-07T23:46:17.014Z,97420.94
2023-04-07T23:48:19.660Z,97413.94
2023-04-07T23:50:22.245Z,97417.34
2023-04-07T23:52:24.860Z,97415.16
2023-04-07T23:54:27.680Z,97418.13
2023-04-07T23:56:30.506Z,97412.16
2023-04-07T23:58:34.400Z,97417.53
